Wilson Algeciras — 9HA2471 — position and weather

sailwx.info

Track history (hours):
 
Tides and Currents Weather Stations Pressure Air Temp Water Temp Dewpoint Dewpoint Depression Visibility Wind Speed Wind Dir Waves Ship Positions

Wilson Algeciras

Last reported at 2014-Oct-20 21:09 UTC. Time now 2014-Oct-21 05:23 UTC.
Position N 53°35' E 000°43'.

Length 88 m; draft 5.2 m.

Type: Cargo ship. MMSI: 248689000.

Date/timePositionNaut miles runAvg speedWind from/ knotsBaromVisibWave heightAir tempDewpointWater temp
2014-Oct-20 21:09N 53°35' E 000°43'6 9.6
2014-Oct-20 20:33N 53°34' E 000°34'7 7.1
2014-Oct-20 19:33N 53°32' E 000°22'10 9.5
2014-Oct-20 18:33N 53°34' E 000°06'1111.1
2014-Oct-20 17:33N 53°38' W 000°11'1 0.6
2014-Oct-20 16:13N 53°38' W 000°12'0 0.0
2014-Oct-20 15:29N 53°38' W 000°12'0 0.0
2014-Oct-20 14:31N 53°38' W 000°12'0 0.0
2014-Oct-20 13:31N 53°38' W 000°12'0 0.0
2014-Oct-20 12:31N 53°38' W 000°12'0 0.0
2014-Oct-20 11:28N 53°38' W 000°12'0 0.0
2014-Oct-20 10:31N 53°38' W 000°12'0 0.0
2014-Oct-20 09:31N 53°38' W 000°12'0 0.0
2014-Oct-20 08:28N 53°38' W 000°12'0 0.0
2014-Oct-20 07:31N 53°38' W 000°12'0 0.0
2014-Oct-20 06:31N 53°38' W 000°12'0 0.0
2014-Oct-20 05:28N 53°38' W 000°12'0 0.0
2014-Oct-20 04:22N 53°38' W 000°12'0 0.0
2014-Oct-20 03:28N 53°38' W 000°12'0 0.0
2014-Oct-20 02:31N 53°38' W 000°12'0 0.0
2014-Oct-20 01:25N 53°38' W 000°12'0 0.0
2014-Oct-20 00:31N 53°38' W 000°12'0 0.0
2014-Oct-19 23:28N 53°38' W 000°12'0 0.0
2014-Oct-19 22:28N 53°38' W 000°12'0 0.0
2014-Oct-19 21:31N 53°38' W 000°12'0 0.0
2014-Oct-19 20:31N 53°38' W 000°12'0 0.0
2014-Oct-19 19:31N 53°38' W 000°12'0 0.0
2014-Oct-19 18:31N 53°38' W 000°12'0 0.0
2014-Oct-19 17:31N 53°38' W 000°12'0 0.0
2014-Oct-19 16:22N 53°38' W 000°12'0 0.0
2014-Oct-19 15:31N 53°38' W 000°12'0 0.0
2014-Oct-19 14:31N 53°38' W 000°12'0 0.0
2014-Oct-19 13:31N 53°38' W 000°12'0 0.0
2014-Oct-19 12:31N 53°38' W 000°12'0 0.0
2014-Oct-19 11:31N 53°38' W 000°12'0 0.0
2014-Oct-19 10:31N 53°38' W 000°12'0 0.0
2014-Oct-19 09:22N 53°38' W 000°12'0 0.0
2014-Oct-19 08:31N 53°38' W 000°12'0 0.0
2014-Oct-19 07:31N 53°38' W 000°12'0 0.0
2014-Oct-19 06:31N 53°38' W 000°12'0 0.0
2014-Oct-19 05:31N 53°38' W 000°12'0 0.0
2014-Oct-19 04:31N 53°38' W 000°12'0 0.0
2014-Oct-19 03:28N 53°38' W 000°12'0 0.0
2014-Oct-19 02:31N 53°38' W 000°12'0 0.0
2014-Oct-19 01:31N 53°38' W 000°12'0 0.0
2014-Oct-19 00:31N 53°38' W 000°12'0 0.0
2014-Oct-18 23:32N 53°38' W 000°12'1 0.5
2014-Oct-18 22:34N 53°38' W 000°11'6 6.3
2014-Oct-18 21:33N 53°36' W 000°01'10 9.8
2014-Oct-18 20:33N 53°33' E 000°15'6 5.8
2014-Oct-18 19:33N 53°34' E 000°24'1 1.3
2014-Oct-18 18:32N 53°35' E 000°24'0 0.0
2014-Oct-18 17:32N 53°35' E 000°24'0 0.0
2014-Oct-18 16:32N 53°35' E 000°24'0 0.0
2014-Oct-18 15:20N 53°35' E 000°24'0 0.1
2014-Oct-18 14:29N 53°35' E 000°24'0 0.0
2014-Oct-18 13:32N 53°35' E 000°24'0 0.0
2014-Oct-18 12:29N 53°35' E 000°24'0 0.1
2014-Oct-18 11:29N 53°35' E 000°24'0 0.1
2014-Oct-18 10:26N 53°35' E 000°24'0 0.1
2014-Oct-18 09:34N 53°35' E 000°24'10 9.7
2014-Oct-18 08:32N 53°27' E 000°32'3311.2
2014-Oct-18 05:33N 53°02' E 001°09'1010.2
2014-Oct-18 04:34N 52°58' E 001°25'9 9.5
2014-Oct-18 03:34N 52°54' E 001°39'9 9.4
2014-Oct-18 02:33N 52°48' E 001°50'10 9.7
2014-Oct-18 01:33N 52°39' E 001°58'1010.4
2014-Oct-18 00:34N 52°29' E 001°58'1111.3
2014-Oct-17 23:33N 52°18' E 001°54'1111.5
2014-Oct-17 22:34N 52°06' E 001°51'1212.0
2014-Oct-17 21:34N 51°55' E 001°48'9 8.5
2014-Oct-17 20:34N 51°50' E 001°37'1111.3
2014-Oct-17 19:34N 51°43' E 001°23'1110.6
2014-Oct-17 18:33N 51°35' E 001°11'9 9.6
2014-Oct-17 17:34N 51°31' E 000°57'9 8.8
2014-Oct-17 16:34N 51°29' E 000°43'9 9.3
2014-Oct-17 15:34N 51°29' E 000°28'7 6.6
2014-Oct-17 14:34N 51°28' E 000°17'0 0.0
2014-Oct-17 13:34N 51°28' E 000°17'0 0.0
2014-Oct-17 12:34N 51°28' E 000°17'0 0.0
2014-Oct-17 11:34N 51°28' E 000°17'0 0.0
2014-Oct-17 10:34N 51°28' E 000°17'0 0.0
2014-Oct-17 09:34N 51°28' E 000°17'0 0.0
2014-Oct-17 08:34N 51°28' E 000°17'0 0.0
2014-Oct-17 07:34N 51°28' E 000°17'0 0.0
2014-Oct-17 06:34N 51°28' E 000°17'0 0.0
2014-Oct-17 05:34N 51°28' E 000°17'0 0.0
2014-Oct-17 04:34N 51°28' E 000°17'0 0.0
2014-Oct-17 03:34N 51°28' E 000°17'0 0.0
2014-Oct-17 02:34N 51°28' E 000°17'0 0.0
2014-Oct-17 01:34N 51°28' E 000°17'0 0.0
2014-Oct-17 00:34N 51°28' E 000°17'0 0.0
2014-Oct-16 23:34N 51°28' E 000°17'0 0.0
2014-Oct-16 22:34N 51°28' E 000°17'0 0.0
2014-Oct-16 21:34N 51°28' E 000°17'0 0.0
2014-Oct-16 20:34N 51°28' E 000°17'0 0.0
2014-Oct-16 19:34N 51°28' E 000°17'0 0.0
2014-Oct-16 18:34N 51°28' E 000°17'0 0.0
2014-Oct-16 17:34N 51°28' E 000°17'0 0.0
2014-Oct-16 16:34N 51°28' E 000°17'0 0.0
2014-Oct-16 15:34N 51°28' E 000°17'0 0.0
2014-Oct-16 14:34N 51°28' E 000°17'0 0.0
2014-Oct-16 13:34N 51°28' E 000°17'0 0.0
2014-Oct-16 12:34N 51°28' E 000°17'0 0.0
2014-Oct-16 11:34N 51°28' E 000°17'0 0.0
2014-Oct-16 10:34N 51°28' E 000°17'0 0.0
2014-Oct-16 09:34N 51°28' E 000°17'0 0.0
2014-Oct-16 08:34N 51°28' E 000°17'0 0.0
2014-Oct-16 07:34N 51°28' E 000°17'0 0.0
2014-Oct-16 06:34N 51°28' E 000°17'0 0.0
2014-Oct-16 05:34N 51°28' E 000°17'0 0.0
2014-Oct-16 04:34N 51°28' E 000°17'0 0.0
2014-Oct-16 03:34N 51°28' E 000°17'0 0.0
2014-Oct-16 02:34N 51°28' E 000°17'0 0.0
2014-Oct-16 01:34N 51°28' E 000°17'0 0.0
2014-Oct-16 00:34N 51°28' E 000°17'0 0.0
2014-Oct-15 23:34N 51°28' E 000°17'0 0.0
2014-Oct-15 22:34N 51°28' E 000°17'0 0.0
2014-Oct-15 21:34N 51°28' E 000°17'0 0.0
2014-Oct-15 20:34N 51°28' E 000°17'0 0.0
2014-Oct-15 19:33N 51°28' E 000°17'0 0.0
2014-Oct-15 18:34N 51°28' E 000°17'0 0.0
2014-Oct-15 17:33N 51°28' E 000°17'0 0.0
2014-Oct-15 16:33N 51°28' E 000°17'0 0.0
2014-Oct-15 15:33N 51°28' E 000°17'0 0.0
2014-Oct-15 14:33N 51°28' E 000°17'0 0.0
2014-Oct-15 13:33N 51°28' E 000°17'0 0.0
2014-Oct-15 12:34N 51°28' E 000°17'0 0.0
2014-Oct-15 11:33N 51°28' E 000°17'0 0.0
2014-Oct-15 10:34N 51°28' E 000°17'0 0.0
2014-Oct-15 09:34N 51°28' E 000°17'0 0.0
2014-Oct-15 08:33N 51°28' E 000°17'0 0.0
2014-Oct-15 07:33N 51°28' E 000°17'0 0.0
2014-Oct-15 06:33N 51°28' E 000°17'0 0.0
2014-Oct-15 05:33N 51°28' E 000°17'0 0.0
2014-Oct-15 04:34N 51°28' E 000°17'3 3.0
2014-Oct-15 03:33N 51°27' E 000°22'10 9.7
2014-Oct-15 02:33N 51°30' E 000°37'1110.6
2014-Oct-15 01:33N 51°30' E 000°54'1 1.4
2014-Oct-15 00:33N 51°29' E 000°56'4 4.1
2014-Oct-14 23:34N 51°30' E 001°02'5 5.0
2014-Oct-14 22:33N 51°29' E 001°10'5 4.6
2014-Oct-14 21:34N 51°29' E 001°18'5 4.6
2014-Oct-14 20:34N 51°28' E 001°25'7 7.2
2014-Oct-14 19:34N 51°24' E 001°34'10 9.6
2014-Oct-14 18:34N 51°14' E 001°38'10 9.7
2014-Oct-14 17:33N 51°05' E 001°38'1211.6
2014-Oct-14 16:33N 50°55' E 001°28'2410.8
2014-Oct-14 14:22N 50°35' E 001°07'810.1
2014-Oct-14 13:34N 50°31' E 000°56'1110.8
2014-Oct-14 12:33N 50°28' E 000°40'1111.0
2014-Oct-14 11:33N 50°25' E 000°24'268 8.1
2014-Oct-13 02:33N 48°07' W 005°28'  
Track history (hours):
 
Tides and Currents Weather Stations Pressure Air Temp Water Temp Dewpoint Dewpoint Depression Visibility Wind Speed Wind Dir Waves Ship Positions

Wilson Algeciras

Last reported at 2014-Oct-20 21:09 UTC. Time now 2014-Oct-21 05:23 UTC.
Position N 53°35' E 000°43'.

Length 88 m; draft 5.2 m.

Type: Cargo ship. MMSI: 248689000.

Date/timePositionNaut miles runAvg speedWind from/ knotsBaromVisibWave heightAir tempDewpointWater temp
2014-Oct-20 21:09N 53°35' E 000°43'6 9.6
2014-Oct-20 20:33N 53°34' E 000°34'7 7.1
2014-Oct-20 19:33N 53°32' E 000°22'10 9.5
2014-Oct-20 18:33N 53°34' E 000°06'1111.1
2014-Oct-20 17:33N 53°38' W 000°11'1 0.6
2014-Oct-20 16:13N 53°38' W 000°12'0 0.0
2014-Oct-20 15:29N 53°38' W 000°12'0 0.0
2014-Oct-20 14:31N 53°38' W 000°12'0 0.0
2014-Oct-20 13:31N 53°38' W 000°12'0 0.0
2014-Oct-20 12:31N 53°38' W 000°12'0 0.0
2014-Oct-20 11:28N 53°38' W 000°12'0 0.0
2014-Oct-20 10:31N 53°38' W 000°12'0 0.0
2014-Oct-20 09:31N 53°38' W 000°12'0 0.0
2014-Oct-20 08:28N 53°38' W 000°12'0 0.0
2014-Oct-20 07:31N 53°38' W 000°12'0 0.0
2014-Oct-20 06:31N 53°38' W 000°12'0 0.0
2014-Oct-20 05:28N 53°38' W 000°12'0 0.0
2014-Oct-20 04:22N 53°38' W 000°12'0 0.0
2014-Oct-20 03:28N 53°38' W 000°12'0 0.0
2014-Oct-20 02:31N 53°38' W 000°12'0 0.0
2014-Oct-20 01:25N 53°38' W 000°12'0 0.0
2014-Oct-20 00:31N 53°38' W 000°12'0 0.0
2014-Oct-19 23:28N 53°38' W 000°12'0 0.0
2014-Oct-19 22:28N 53°38' W 000°12'0 0.0
2014-Oct-19 21:31N 53°38' W 000°12'0 0.0
2014-Oct-19 20:31N 53°38' W 000°12'0 0.0
2014-Oct-19 19:31N 53°38' W 000°12'0 0.0
2014-Oct-19 18:31N 53°38' W 000°12'0 0.0
2014-Oct-19 17:31N 53°38' W 000°12'0 0.0
2014-Oct-19 16:22N 53°38' W 000°12'0 0.0
2014-Oct-19 15:31N 53°38' W 000°12'0 0.0
2014-Oct-19 14:31N 53°38' W 000°12'0 0.0
2014-Oct-19 13:31N 53°38' W 000°12'0 0.0
2014-Oct-19 12:31N 53°38' W 000°12'0 0.0
2014-Oct-19 11:31N 53°38' W 000°12'0 0.0
2014-Oct-19 10:31N 53°38' W 000°12'0 0.0
2014-Oct-19 09:22N 53°38' W 000°12'0 0.0
2014-Oct-19 08:31N 53°38' W 000°12'0 0.0
2014-Oct-19 07:31N 53°38' W 000°12'0 0.0
2014-Oct-19 06:31N 53°38' W 000°12'0 0.0
2014-Oct-19 05:31N 53°38' W 000°12'0 0.0
2014-Oct-19 04:31N 53°38' W 000°12'0 0.0
2014-Oct-19 03:28N 53°38' W 000°12'0 0.0
2014-Oct-19 02:31N 53°38' W 000°12'0 0.0
2014-Oct-19 01:31N 53°38' W 000°12'0 0.0
2014-Oct-19 00:31N 53°38' W 000°12'0 0.0
2014-Oct-18 23:32N 53°38' W 000°12'1 0.5
2014-Oct-18 22:34N 53°38' W 000°11'6 6.3
2014-Oct-18 21:33N 53°36' W 000°01'10 9.8
2014-Oct-18 20:33N 53°33' E 000°15'6 5.8
2014-Oct-18 19:33N 53°34' E 000°24'1 1.3
2014-Oct-18 18:32N 53°35' E 000°24'0 0.0
2014-Oct-18 17:32N 53°35' E 000°24'0 0.0
2014-Oct-18 16:32N 53°35' E 000°24'0 0.0
2014-Oct-18 15:20N 53°35' E 000°24'0 0.1
2014-Oct-18 14:29N 53°35' E 000°24'0 0.0
2014-Oct-18 13:32N 53°35' E 000°24'0 0.0
2014-Oct-18 12:29N 53°35' E 000°24'0 0.1
2014-Oct-18 11:29N 53°35' E 000°24'0 0.1
2014-Oct-18 10:26N 53°35' E 000°24'0 0.1
2014-Oct-18 09:34N 53°35' E 000°24'10 9.7
2014-Oct-18 08:32N 53°27' E 000°32'3311.2
2014-Oct-18 05:33N 53°02' E 001°09'1010.2
2014-Oct-18 04:34N 52°58' E 001°25'9 9.5
2014-Oct-18 03:34N 52°54' E 001°39'9 9.4
2014-Oct-18 02:33N 52°48' E 001°50'10 9.7
2014-Oct-18 01:33N 52°39' E 001°58'1010.4
2014-Oct-18 00:34N 52°29' E 001°58'1111.3
2014-Oct-17 23:33N 52°18' E 001°54'1111.5
2014-Oct-17 22:34N 52°06' E 001°51'1212.0
2014-Oct-17 21:34N 51°55' E 001°48'9 8.5
2014-Oct-17 20:34N 51°50' E 001°37'1111.3
2014-Oct-17 19:34N 51°43' E 001°23'1110.6
2014-Oct-17 18:33N 51°35' E 001°11'9 9.6
2014-Oct-17 17:34N 51°31' E 000°57'9 8.8
2014-Oct-17 16:34N 51°29' E 000°43'9 9.3
2014-Oct-17 15:34N 51°29' E 000°28'7 6.6
2014-Oct-17 14:34N 51°28' E 000°17'0 0.0
2014-Oct-17 13:34N 51°28' E 000°17'0 0.0
2014-Oct-17 12:34N 51°28' E 000°17'0 0.0
2014-Oct-17 11:34N 51°28' E 000°17'0 0.0
2014-Oct-17 10:34N 51°28' E 000°17'0 0.0
2014-Oct-17 09:34N 51°28' E 000°17'0 0.0
2014-Oct-17 08:34N 51°28' E 000°17'0 0.0
2014-Oct-17 07:34N 51°28' E 000°17'0 0.0
2014-Oct-17 06:34N 51°28' E 000°17'0 0.0
2014-Oct-17 05:34N 51°28' E 000°17'0 0.0
2014-Oct-17 04:34N 51°28' E 000°17'0 0.0
2014-Oct-17 03:34N 51°28' E 000°17'0 0.0
2014-Oct-17 02:34N 51°28' E 000°17'0 0.0
2014-Oct-17 01:34N 51°28' E 000°17'0 0.0
2014-Oct-17 00:34N 51°28' E 000°17'0 0.0
2014-Oct-16 23:34N 51°28' E 000°17'0 0.0
2014-Oct-16 22:34N 51°28' E 000°17'0 0.0
2014-Oct-16 21:34N 51°28' E 000°17'0 0.0
2014-Oct-16 20:34N 51°28' E 000°17'0 0.0
2014-Oct-16 19:34N 51°28' E 000°17'0 0.0
2014-Oct-16 18:34N 51°28' E 000°17'0 0.0
2014-Oct-16 17:34N 51°28' E 000°17'0 0.0
2014-Oct-16 16:34N 51°28' E 000°17'0 0.0
2014-Oct-16 15:34N 51°28' E 000°17'0 0.0
2014-Oct-16 14:34N 51°28' E 000°17'0 0.0
2014-Oct-16 13:34N 51°28' E 000°17'0 0.0
2014-Oct-16 12:34N 51°28' E 000°17'0 0.0
2014-Oct-16 11:34N 51°28' E 000°17'0 0.0
2014-Oct-16 10:34N 51°28' E 000°17'0 0.0
2014-Oct-16 09:34N 51°28' E 000°17'0 0.0
2014-Oct-16 08:34N 51°28' E 000°17'0 0.0
2014-Oct-16 07:34N 51°28' E 000°17'0 0.0
2014-Oct-16 06:34N 51°28' E 000°17'0 0.0
2014-Oct-16 05:34N 51°28' E 000°17'0 0.0
2014-Oct-16 04:34N 51°28' E 000°17'0 0.0
2014-Oct-16 03:34N 51°28' E 000°17'0 0.0
2014-Oct-16 02:34N 51°28' E 000°17'0 0.0
2014-Oct-16 01:34N 51°28' E 000°17'0 0.0
2014-Oct-16 00:34N 51°28' E 000°17'0 0.0
2014-Oct-15 23:34N 51°28' E 000°17'0 0.0
2014-Oct-15 22:34N 51°28' E 000°17'0 0.0
2014-Oct-15 21:34N 51°28' E 000°17'0 0.0
2014-Oct-15 20:34N 51°28' E 000°17'0 0.0
2014-Oct-15 19:33N 51°28' E 000°17'0 0.0
2014-Oct-15 18:34N 51°28' E 000°17'0 0.0
2014-Oct-15 17:33N 51°28' E 000°17'0 0.0
2014-Oct-15 16:33N 51°28' E 000°17'0 0.0
2014-Oct-15 15:33N 51°28' E 000°17'0 0.0
2014-Oct-15 14:33N 51°28' E 000°17'0 0.0
2014-Oct-15 13:33N 51°28' E 000°17'0 0.0
2014-Oct-15 12:34N 51°28' E 000°17'0 0.0
2014-Oct-15 11:33N 51°28' E 000°17'0 0.0
2014-Oct-15 10:34N 51°28' E 000°17'0 0.0
2014-Oct-15 09:34N 51°28' E 000°17'0 0.0
2014-Oct-15 08:33N 51°28' E 000°17'0 0.0
2014-Oct-15 07:33N 51°28' E 000°17'0 0.0
2014-Oct-15 06:33N 51°28' E 000°17'0 0.0
2014-Oct-15 05:33N 51°28' E 000°17'0 0.0
2014-Oct-15 04:34N 51°28' E 000°17'3 3.0
2014-Oct-15 03:33N 51°27' E 000°22'10 9.7
2014-Oct-15 02:33N 51°30' E 000°37'1110.6
2014-Oct-15 01:33N 51°30' E 000°54'1 1.4
2014-Oct-15 00:33N 51°29' E 000°56'4 4.1
2014-Oct-14 23:34N 51°30' E 001°02'5 5.0
2014-Oct-14 22:33N 51°29' E 001°10'5 4.6
2014-Oct-14 21:34N 51°29' E 001°18'5 4.6
2014-Oct-14 20:34N 51°28' E 001°25'7 7.2
2014-Oct-14 19:34N 51°24' E 001°34'10 9.6
2014-Oct-14 18:34N 51°14' E 001°38'10 9.7
2014-Oct-14 17:33N 51°05' E 001°38'1211.6
2014-Oct-14 16:33N 50°55' E 001°28'2410.8
2014-Oct-14 14:22N 50°35' E 001°07'810.1
2014-Oct-14 13:34N 50°31' E 000°56'1110.8
2014-Oct-14 12:33N 50°28' E 000°40'1111.0
2014-Oct-14 11:33N 50°25' E 000°24'268 8.1
2014-Oct-13 02:33N 48°07' W 005°28'  

Dump ship's entire track history